Time;durP1;ratioP1;P1;durP2;ratioP2;P2;SDS_P1;SDS_P2;PMS_P1;PMS_P2;Temp;Humidity;BMP_temperature;BMP_pressure;BME280_temperature;BME280_humidity;BME280_pressure;Samples;Min_cycle;Max_cycle;Signal;HPM_P1;HPM_P2
2022/09/24 00:01:24;;;;;;;17.15;11.85;;;;;;;18.10;71.25;101325.47;6157947;23;20078;-39
2022/09/24 00:03:55;;;;;;;18.60;12.35;;;;;;;18.08;70.88;101322.84;6163357;23;20028;-39
2022/09/24 00:06:22;;;;;;;18.98;12.77;;;;;;;17.76;71.80;101325.78;6164018;23;20040;-39
2022/09/24 00:08:50;;;;;;;20.45;13.80;;;;;;;17.93;71.43;101325.59;6151491;23;20891;-41
2022/09/24 00:11:18;;;;;;;20.63;13.15;;;;;;;17.86;71.56;101316.03;6161197;23;20005;-39
2022/09/24 00:13:44;;;;;;;19.08;13.05;;;;;;;17.95;71.31;101320.31;6158968;23;20044;-40
2022/09/24 00:16:11;;;;;;;20.35;13.73;;;;;;;17.78;71.61;101324.00;6161139;23;20052;-39
2022/09/24 00:18:38;;;;;;;20.70;13.13;;;;;;;17.94;71.35;101308.03;6153679;23;20500;-40
2022/09/24 00:21:12;;;;;;;18.55;12.77;;;;;;;18.05;71.10;101311.44;6160498;23;20020;-41
2022/09/24 00:23:37;;;;;;;18.98;12.70;;;;;;;18.01;70.88;101313.22;6164619;23;20036;-40
2022/09/24 00:28:51;;;;;;;18.00;12.32;;;;;;;18.09;70.88;101310.50;6158128;23;20124;-40
2022/09/24 00:31:17;;;;;;;18.75;12.70;;;;;;;17.92;71.26;101323.88;6160291;23;20029;-39
2022/09/24 00:33:42;;;;;;;18.08;12.00;;;;;;;18.05;70.92;101311.44;6164556;23;20076;-39
2022/09/24 00:36:08;;;;;;;21.27;13.30;;;;;;;17.84;71.60;101321.31;6160615;23;20087;-39
2022/09/24 00:38:33;;;;;;;17.45;12.50;;;;;;;17.95;71.12;101312.41;6151677;23;20313;-39
2022/09/24 00:41:00;;;;;;;15.13;11.23;;;;;;;17.93;71.08;101311.56;6160981;23;20112;-40
2022/09/24 00:43:30;;;;;;;17.52;12.10;;;;;;;17.93;71.19;101307.13;6159192;23;20013;-41
2022/09/24 00:46:04;;;;;;;18.60;11.65;;;;;;;17.99;71.15;101306.22;6164547;23;20088;-39
2022/09/24 00:48:32;;;;;;;17.63;11.88;;;;;;;17.99;71.09;101315.00;6154334;23;20017;-40
2022/09/24 00:50:59;;;;;;;19.27;12.52;;;;;;;18.00;70.88;101308.84;6161056;23;20045;-39
2022/09/24 00:53:30;;;;;;;20.17;12.45;;;;;;;17.90;71.38;101303.66;6161255;23;20424;-39
2022/09/24 00:55:58;;;;;;;17.17;11.93;;;;;;;18.00;70.93;101307.97;6159275;23;20387;-41
2022/09/24 00:58:24;;;;;;;16.90;11.98;;;;;;;17.99;70.99;101296.53;6162179;23;20013;-40
2022/09/24 01:00:59;;;;;;;17.05;11.57;;;;;;;17.97;70.67;101289.53;6154958;23;20140;-40
2022/09/24 01:03:27;;;;;;;17.23;11.90;;;;;;;18.11;70.52;101292.91;6163015;23;20005;-39
2022/09/24 01:05:52;;;;;;;18.67;11.80;;;;;;;18.01;70.69;101280.69;6160704;23;20017;-39
2022/09/24 01:08:20;;;;;;;15.80;11.15;;;;;;;18.06;70.41;101285.03;6157231;23;20016;-41
2022/09/24 01:11:00;;;;;;;20.13;12.52;;;;;;;18.06;70.47;101279.75;6157893;23;20382;-39
2022/09/24 01:13:32;;;;;;;17.48;11.80;;;;;;;18.00;70.53;101282.44;6154094;23;20009;-40
2022/09/24 01:16:07;;;;;;;16.48;11.35;;;;;;;18.05;70.63;101280.63;6161062;23;20080;-39
2022/09/24 01:18:41;;;;;;;17.25;12.40;;;;;;;18.02;70.57;101280.69;6153551;23;20024;-40
2022/09/24 01:21:24;;;;;;;18.65;12.48;;;;;;;18.02;70.64;101270.13;6162760;23;20039;-39
2022/09/24 01:24:28;;;;;;;18.13;11.85;;;;;;;18.00;70.39;101268.38;6160603;23;20425;-39
2022/09/24 01:27:02;;;;;;;18.55;12.00;;;;;;;17.84;70.70;101271.19;6153722;23;20436;-40
2022/09/24 01:29:53;;;;;;;18.42;11.93;;;;;;;17.76;71.22;101275.66;6160395;23;20087;-40
2022/09/24 01:32:38;;;;;;;19.38;12.27;;;;;;;17.79;70.80;101269.50;6149080;23;20020;-40
2022/09/24 01:35:23;;;;;;;16.75;11.70;;;;;;;17.84;70.66;101272.97;6162335;23;20100;-40
2022/09/24 01:37:55;;;;;;;20.63;11.48;;;;;;;17.88;70.47;101260.59;6156080;23;20509;-39
2022/09/24 01:40:23;;;;;;;14.88;10.55;;;;;;;17.96;70.37;101256.13;6161590;23;20336;-40
2022/09/24 01:42:50;;;;;;;16.83;12.10;;;;;;;17.86;70.37;101247.44;6153339;23;20043;-39
2022/09/24 01:45:17;;;;;;;15.52;11.07;;;;;;;17.90;70.40;101254.44;6160796;23;20036;-39
2022/09/24 01:47:44;;;;;;;17.90;11.73;;;;;;;17.83;70.65;101248.34;6160792;23;20017;-40
2022/09/24 01:50:13;;;;;;;18.65;11.93;;;;;;;17.82;70.74;101246.59;6154688;23;20017;-39
2022/09/24 01:53:05;;;;;;;17.55;12.18;;;;;;;17.85;70.80;101250.97;6159064;23;20059;-40
2022/09/24 01:55:37;;;;;;;19.90;12.88;;;;;;;17.76;70.78;101256.31;6158200;23;20020;-39
2022/09/24 01:58:18;;;;;;;17.50;12.77;;;;;;;17.82;71.04;101248.34;6162262;23;20013;-41
2022/09/24 02:00:48;;;;;;;18.35;12.30;;;;;;;17.97;70.73;101255.25;6155278;23;20012;-40
2022/09/24 02:03:18;;;;;;;17.67;12.18;;;;;;;18.00;70.70;101242.00;6160217;23;20340;-40
2022/09/24 02:06:02;;;;;;;18.90;13.30;;;;;;;17.98;70.75;101244.69;6159300;23;20015;-39
2022/09/24 02:08:36;;;;;;;20.42;13.05;;;;;;;18.04;70.65;101241.97;6153267;23;20013;-39
2022/09/24 02:11:10;;;;;;;20.50;13.33;;;;;;;18.02;70.53;101241.09;6161971;23;20009;-40
2022/09/24 02:13:48;;;;;;;22.02;12.98;;;;;;;18.02;70.73;101233.19;6156902;23;20017;-40
2022/09/24 02:16:17;;;;;;;20.30;13.48;;;;;;;17.98;70.70;101233.25;6162629;23;20534;-41
2022/09/24 02:18:46;;;;;;;21.83;14.20;;;;;;;18.02;70.61;101229.69;6150093;23;20325;-39
2022/09/24 02:21:14;;;;;;;21.75;13.60;;;;;;;17.97;70.45;101228.88;6161463;23;20016;-39
2022/09/24 02:23:44;;;;;;;21.67;13.30;;;;;;;17.93;70.53;101222.72;6161855;23;20830;-39
2022/09/24 02:26:10;;;;;;;22.42;13.20;;;;;;;17.95;69.93;101218.31;6157055;23;20036;-40
2022/09/24 02:28:37;;;;;;;20.02;13.00;;;;;;;17.90;69.76;101220.13;6157945;23;20079;-39
2022/09/24 02:31:13;;;;;;;21.33;14.32;;;;;;;17.86;69.71;101212.28;6160234;23;20314;-40
2022/09/24 02:36:28;;;;;;;19.77;12.57;;;;;;;17.72;69.91;101215.06;6160522;23;20463;-39
2022/09/24 02:38:54;;;;;;;23.02;14.35;;;;;;;17.63;70.03;101216.03;6157205;23;20028;-41
2022/09/24 02:41:22;;;;;;;26.05;14.40;;;;;;;17.60;70.56;101215.16;6162976;23;20309;-41
2022/09/24 02:43:47;;;;;;;22.92;13.52;;;;;;;17.64;70.24;101220.41;6156682;23;20088;-39
2022/09/24 02:46:13;;;;;;;24.42;14.30;;;;;;;17.63;70.17;101213.38;6161265;23;20051;-39
2022/09/24 02:48:38;;;;;;;23.73;14.20;;;;;;;17.62;70.29;101216.06;6155412;23;20118;-39
2022/09/24 02:51:04;;;;;;;25.10;14.50;;;;;;;17.56;70.81;101227.50;6163001;23;20507;-39
2022/09/24 02:53:30;;;;;;;22.00;12.88;;;;;;;17.65;70.28;101222.16;6162575;23;20033;-42
2022/09/24 02:55:57;;;;;;;24.30;13.60;;;;;;;17.64;70.32;101211.63;6156410;23;20011;-42
2022/09/24 02:58:23;;;;;;;23.45;13.95;;;;;;;17.60;70.87;101217.78;6162715;23;20444;-41
2022/09/24 03:00:49;;;;;;;24.27;13.90;;;;;;;17.60;70.59;101217.78;6156584;23;20005;-40
2022/09/24 03:03:14;;;;;;;23.98;14.23;;;;;;;17.54;70.93;101221.38;6162376;23;20015;-41
2022/09/24 03:05:40;;;;;;;23.90;14.80;;;;;;;17.52;71.17;101216.97;6160538;23;20012;-40
2022/09/24 03:08:06;;;;;;;26.67;14.75;;;;;;;17.60;71.31;101216.06;6155726;23;20686;-41
2022/09/24 03:10:32;;;;;;;26.50;14.35;;;;;;;17.64;70.99;101220.41;6159214;23;20031;-40
2022/09/24 03:12:57;;;;;;;21.92;13.40;;;;;;;17.70;70.91;101211.56;6157661;23;20444;-40
2022/09/24 03:15:23;;;;;;;24.65;13.77;;;;;;;17.67;71.26;101223.03;6161457;23;20084;-41
2022/09/24 03:17:48;;;;;;;23.30;13.68;;;;;;;17.70;71.22;101215.06;6162492;23;20016;-39
2022/09/24 03:20:13;;;;;;;26.42;14.77;;;;;;;17.65;71.11;101211.63;6161969;23;20017;-40
2022/09/24 03:22:39;;;;;;;24.70;13.93;;;;;;;17.73;70.96;101214.19;6158969;23;20001;-40
2022/09/24 03:25:04;;;;;;;25.00;14.85;;;;;;;17.76;70.87;101222.03;6155984;23;20013;-41
2022/09/24 03:27:30;;;;;;;28.10;15.40;;;;;;;17.71;70.99;101210.69;6160923;23;20088;-40
2022/09/24 03:32:39;;;;;;;25.30;14.73;;;;;;;17.73;70.93;101215.06;6156246;23;20541;-41
2022/09/24 03:35:05;;;;;;;27.60;15.32;;;;;;;17.71;71.07;101211.56;6162644;23;20332;-39
2022/09/24 03:37:31;;;;;;;27.63;15.93;;;;;;;17.71;71.20;101213.31;6158197;23;20015;-40
2022/09/24 03:39:56;;;;;;;27.30;15.10;;;;;;;17.73;70.99;101206.28;6162427;23;20013;-41
2022/09/24 03:42:22;;;;;;;28.50;16.15;;;;;;;17.69;71.21;101213.31;6163468;23;19997;-39
2022/09/24 03:44:47;;;;;;;26.98;15.50;;;;;;;17.69;71.29;101218.59;6151994;23;20022;-40
2022/09/24 03:47:12;;;;;;;27.30;15.68;;;;;;;17.65;71.50;101208.97;6161430;23;20094;-39
2022/09/24 03:49:38;;;;;;;30.17;16.10;;;;;;;17.65;71.35;101216.00;6155476;23;20539;-39
2022/09/24 03:52:03;;;;;;;31.40;17.13;;;;;;;17.50;72.18;101218.78;6160910;23;20523;-39
2022/09/24 03:54:29;;;;;;;31.65;15.60;;;;;;;17.67;71.55;101216.88;6157916;23;20016;-40
2022/09/24 03:56:54;;;;;;;35.38;18.10;;;;;;;17.59;72.01;101211.66;6156044;23;20539;-41
2022/09/24 03:59:19;;;;;;;30.45;16.40;;;;;;;17.61;72.28;101211.66;6161662;23;20040;-40
2022/09/24 04:01:45;;;;;;;33.28;16.90;;;;;;;17.62;71.92;101214.31;6157172;23;20503;-40
2022/09/24 04:04:13;;;;;;;36.45;17.50;;;;;;;17.60;72.18;101212.53;6163169;23;20499;-40
2022/09/24 04:06:38;;;;;;;36.72;17.98;;;;;;;17.53;72.46;101214.34;6154193;23;20436;-41
2022/09/24 04:09:04;;;;;;;36.00;17.80;;;;;;;17.54;72.57;101207.31;6165172;23;20016;-39
2022/09/24 04:11:29;;;;;;;34.97;17.33;;;;;;;17.62;72.17;101203.75;6164858;23;20379;-41
2022/09/24 04:13:54;;;;;;;35.05;17.40;;;;;;;17.63;72.17;101199.31;6159186;23;20677;-40
2022/09/24 04:16:20;;;;;;;35.53;18.10;;;;;;;17.56;72.47;101202.91;6159209;23;20087;-40
2022/09/24 04:18:47;;;;;;;33.75;16.38;;;;;;;17.74;72.00;101210.66;6153322;23;20767;-40
2022/09/24 04:21:13;;;;;;;39.45;18.83;;;;;;;17.60;72.17;101209.88;6160566;23;20005;-42
2022/09/24 04:23:38;;;;;;;39.03;18.13;;;;;;;17.68;71.95;101208.97;6161427;23;20508;-39
2022/09/24 04:26:03;;;;;;;32.83;17.85;;;;;;;17.71;72.09;101221.22;6160343;23;20044;-40
2022/09/24 04:28:30;;;;;;;39.13;18.30;;;;;;;17.63;72.12;101221.28;6159079;23;20100;-41
2022/09/24 04:30:55;;;;;;;35.78;18.13;;;;;;;17.51;72.34;101229.28;6156683;23;20040;-38
2022/09/24 04:33:20;;;;;;;46.85;19.17;;;;;;;17.31;72.82;101210.16;6167160;23;20009;-40
2022/09/24 04:35:46;;;;;;;34.40;17.63;;;;;;;17.25;73.28;101215.50;6163571;23;20019;-39
2022/09/24 04:38:12;;;;;;;43.15;18.00;;;;;;;17.19;73.82;101215.53;6158960;23;20044;-41
2022/09/24 04:40:38;;;;;;;42.03;18.05;;;;;;;17.16;73.80;101218.19;6160514;23;20379;-43
2022/09/24 04:43:05;;;;;;;39.38;17.33;;;;;;;17.31;73.46;101218.06;6156596;23;20335;-41
2022/09/24 04:45:31;;;;;;;36.08;16.10;;;;;;;17.34;72.99;101210.13;6161684;23;20005;-40
2022/09/24 04:47:56;;;;;;;37.65;15.38;;;;;;;17.21;73.69;101204.09;6162528;23;20213;-40
2022/09/24 04:50:34;;;;;;;43.40;16.02;;;;;;;17.06;74.69;101212.13;6156774;23;20494;-40
2022/09/24 04:53:01;;;;;;;34.83;14.32;;;;;;;17.30;73.95;101205.78;6159365;23;20442;-42
2022/09/24 04:55:26;;;;;;;27.08;12.43;;;;;;;17.39;73.44;101211.81;6181006;23;20389;-42
2022/09/24 04:57:55;;;;;;;25.88;12.20;;;;;;;17.43;73.13;101215.31;6160644;23;20084;-41
2022/09/24 05:00:20;;;;;;;26.95;12.85;;;;;;;17.21;74.16;101214.63;6161208;23;20009;-41
2022/09/24 05:02:46;;;;;;;24.60;12.15;;;;;;;17.29;73.69;101206.66;6153067;23;20024;-41
2022/09/24 05:05:12;;;;;;;25.55;12.20;;;;;;;17.39;73.54;101209.19;6160446;23;20011;-44
2022/09/24 05:07:38;;;;;;;24.70;12.63;;;;;;;17.49;73.03;101207.38;6156389;23;20095;-41
2022/09/24 05:10:05;;;;;;;24.27;12.63;;;;;;;17.23;74.10;101211.97;6160267;23;20102;-43
2022/09/24 05:12:31;;;;;;;25.63;13.00;;;;;;;17.25;74.45;101213.72;6155455;23;20009;-40
2022/09/24 05:14:56;;;;;;;21.65;11.15;;;;;;;17.38;73.83;101217.13;6160570;23;20016;-45
2022/09/24 05:17:22;;;;;;;20.63;10.45;;;;;;;17.16;74.90;101212.91;6164620;23;20049;-42
2022/09/24 05:19:47;;;;;;;17.98;9.65;;;;;;;17.54;73.35;101218.72;6157175;23;20542;-45
2022/09/24 05:22:13;;;;;;;13.30;7.82;;;;;;;17.54;73.56;101223.13;6161947;23;20012;-46
2022/09/24 05:24:38;;;;;;;14.88;7.60;;;;;;;17.37;74.44;101211.00;6155132;23;20068;-44
2022/09/24 05:27:09;;;;;;;14.75;7.35;;;;;;;17.25;74.96;101226.91;6161960;23;20325;-45
2022/09/24 05:29:36;;;;;;;13.23;6.55;;;;;;;17.25;74.35;101226.91;6161516;23;20005;-45
2022/09/24 05:32:04;;;;;;;11.45;6.45;;;;;;;17.27;74.92;101227.75;6159162;23;20376;-42
2022/09/24 05:34:30;;;;;;;10.93;5.60;;;;;;;17.21;74.47;101227.81;6158604;23;20071;-43
2022/09/24 05:36:55;;;;;;;10.40;5.53;;;;;;;17.16;74.43;101231.34;6155831;23;20421;-44
2022/09/24 05:39:21;;;;;;;9.85;5.15;;;;;;;17.23;74.36;101233.94;6159326;23;20311;-44
2022/09/24 05:41:46;;;;;;;9.32;4.65;;;;;;;17.22;73.94;101233.94;6161119;23;20016;-45
2022/09/24 05:44:12;;;;;;;8.15;4.38;;;;;;;17.23;73.12;101226.03;6155189;23;20017;-41
2022/09/24 05:46:37;;;;;;;7.05;4.03;;;;;;;17.42;72.84;101237.28;6155949;23;20013;-43
2022/09/24 05:49:03;;;;;;;9.43;4.50;;;;;;;17.45;72.59;101235.50;6157366;23;20017;-43
2022/09/24 05:51:28;;;;;;;7.00;3.90;;;;;;;17.45;72.60;101235.50;6161610;23;20005;-44
2022/09/24 05:53:54;;;;;;;7.00;3.70;;;;;;;17.32;73.13;101233.00;6161803;23;20005;-43
2022/09/24 05:56:19;;;;;;;8.90;4.10;;;;;;;17.36;72.76;101247.88;6158491;23;20084;-42
2022/09/24 05:58:48;;;;;;;6.68;3.55;;;;;;;17.26;73.00;101243.59;6161414;23;20001;-42
2022/09/24 06:01:14;;;;;;;8.10;3.70;;;;;;;17.45;72.38;101246.03;6155770;23;20827;-43
2022/09/24 06:03:39;;;;;;;7.78;3.60;;;;;;;17.49;72.18;101249.53;6161869;23;20055;-41
2022/09/24 06:06:05;;;;;;;8.10;3.40;;;;;;;17.45;72.15;101255.69;6160426;23;20016;-44
2022/09/24 06:08:34;;;;;;;7.93;3.50;;;;;;;17.18;73.10;101258.56;6154991;23;20404;-41
2022/09/24 06:11:05;;;;;;;7.45;3.40;;;;;;;17.25;73.03;101268.19;6156996;23;20527;-44
2022/09/24 06:13:33;;;;;;;7.78;3.90;;;;;;;16.91;73.80;101273.69;6159176;23;20103;-41
2022/09/24 06:16:11;;;;;;;7.30;3.47;;;;;;;16.92;74.15;101274.56;6160426;23;20005;-44
2022/09/24 06:18:38;;;;;;;7.60;3.00;;;;;;;17.19;73.72;101277.03;6153560;23;20072;-41
2022/09/24 06:21:06;;;;;;;7.15;3.15;;;;;;;16.97;74.41;101278.91;6164998;23;20005;-42
2022/09/24 06:23:33;;;;;;;7.07;3.15;;;;;;;17.06;74.21;101277.09;6163153;23;20021;-43
2022/09/24 06:25:59;;;;;;;6.60;2.58;;;;;;;17.15;73.69;101272.63;6159081;23;20012;-44
2022/09/24 06:28:24;;;;;;;7.10;2.78;;;;;;;17.31;72.97;101276.94;6162929;23;20015;-42
2022/09/24 06:30:50;;;;;;;6.43;2.50;;;;;;;17.22;73.45;101286.66;6158388;23;20012;-42
2022/09/24 06:33:16;;;;;;;8.07;2.22;;;;;;;17.40;72.38;101283.88;6165657;23;20028;-43
2022/09/24 06:35:43;;;;;;;7.75;2.67;;;;;;;17.44;72.29;101281.19;6163984;23;20470;-42
2022/09/24 06:38:14;;;;;;;9.68;2.20;;;;;;;17.53;72.08;101277.59;6158204;23;20036;-43
2022/09/24 06:40:40;;;;;;;7.88;2.50;;;;;;;17.39;72.43;101280.34;6159967;23;20036;-42
2022/09/24 06:43:06;;;;;;;8.43;2.20;;;;;;;17.51;72.25;101279.38;6158133;23;20020;-42
2022/09/24 06:45:33;;;;;;;9.27;2.22;;;;;;;17.57;72.49;101283.72;6162347;23;20009;-41
2022/09/24 06:48:00;;;;;;;7.70;2.38;;;;;;;17.27;72.65;101279.56;6160676;23;20009;-41
2022/09/24 06:50:28;;;;;;;6.28;1.98;;;;;;;17.30;72.96;101290.09;6158558;23;20013;-44
2022/09/24 06:52:54;;;;;;;7.53;2.35;;;;;;;17.43;72.86;101302.31;6163698;23;20395;-43
2022/09/24 06:55:20;;;;;;;9.48;2.15;;;;;;;17.35;72.37;101291.81;6159560;23;20013;-40
2022/09/24 06:57:45;;;;;;;8.43;2.13;;;;;;;17.29;73.41;101291.00;6161908;23;20488;-44
2022/09/24 07:00:12;;;;;;;9.35;2.10;;;;;;;17.32;73.26;101290.97;6163855;23;20001;-42
2022/09/24 07:02:38;;;;;;;8.45;2.25;;;;;;;17.48;72.49;101304.91;6155910;23;20008;-44
2022/09/24 07:05:04;;;;;;;7.40;2.10;;;;;;;17.32;73.19;101309.44;6160532;23;20008;-41
2022/09/24 07:07:33;;;;;;;7.28;1.90;;;;;;;17.15;73.66;101312.16;6156516;23;20016;-42
2022/09/24 07:10:00;;;;;;;9.00;2.13;;;;;;;17.06;73.46;101320.13;6160661;23;20088;-42
2022/09/24 07:12:29;;;;;;;8.75;2.20;;;;;;;17.23;73.12;101323.53;6159791;23;20001;-43
2022/09/24 07:14:55;;;;;;;9.52;2.00;;;;;;;17.09;73.63;101324.50;6157827;23;20044;-41
2022/09/24 07:17:21;;;;;;;7.93;1.88;;;;;;;17.20;73.08;101323.53;6166283;23;20849;-43
2022/09/24 07:19:46;;;;;;;10.38;2.10;;;;;;;17.08;73.48;101325.41;6160307;23;20039;-42
2022/09/24 07:22:12;;;;;;;10.30;2.30;;;;;;;17.13;73.61;101329.75;6162619;23;20008;-42
2022/09/24 07:24:37;;;;;;;9.75;2.10;;;;;;;17.15;73.32;101330.59;6155796;23;20396;-42
2022/09/24 07:27:04;;;;;;;7.63;2.13;;;;;;;16.87;73.47;101337.78;6161013;23;20013;-44
2022/09/24 07:29:29;;;;;;;11.15;2.03;;;;;;;16.83;74.42;101341.31;6160381;23;20276;-42
2022/09/24 07:31:55;;;;;;;10.07;2.20;;;;;;;16.79;74.55;101346.59;6154739;23;20012;-43
2022/09/24 07:34:20;;;;;;;7.65;1.90;;;;;;;16.62;74.93;101351.94;6161702;23;20104;-43
2022/09/24 07:36:46;;;;;;;9.38;2.10;;;;;;;16.69;75.17;101347.53;6152589;23;20516;-41
2022/09/24 07:39:11;;;;;;;9.63;2.28;;;;;;;16.87;75.06;101350.97;6163089;23;20372;-43
2022/09/24 07:41:38;;;;;;;11.48;2.40;;;;;;;16.61;75.34;101347.56;6152734;23;20836;-42
2022/09/24 07:44:03;;;;;;;10.48;2.03;;;;;;;16.88;74.18;101347.44;6161922;23;20031;-43
2022/09/24 07:46:29;;;;;;;9.88;2.17;;;;;;;16.46;75.56;101351.09;6157406;23;20440;-44
2022/09/24 07:48:55;;;;;;;10.27;2.00;;;;;;;16.83;73.98;101357.09;6157978;23;20013;-42
2022/09/24 07:51:21;;;;;;;10.30;2.28;;;;;;;16.43;75.30;101351.09;6160628;23;20037;-44
2022/09/24 07:53:47;;;;;;;8.18;1.95;;;;;;;16.77;74.45;101365.03;6165569;23;20022;-46
2022/09/24 07:56:13;;;;;;;9.10;2.08;;;;;;;16.65;74.58;101356.34;6157506;23;20009;-43
2022/09/24 07:58:39;;;;;;;11.02;2.22;;;;;;;16.57;74.85;101362.47;6182085;23;20008;-43
2022/09/24 08:01:04;;;;;;;8.85;2.00;;;;;;;16.29;74.91;101363.41;6149769;23;20029;-44
2022/09/24 08:03:30;;;;;;;6.47;2.00;;;;;;;16.47;74.81;101359.84;6154667;23;20429;-44
2022/09/24 08:05:57;;;;;;;7.88;1.95;;;;;;;16.65;74.01;101362.44;6158647;23;20088;-45
2022/09/24 08:08:23;;;;;;;8.07;1.63;;;;;;;16.67;74.24;101359.81;6155365;23;20019;-44
2022/09/24 08:10:49;;;;;;;7.25;1.90;;;;;;;16.53;75.11;101359.81;6181666;23;20009;-42
2022/09/24 08:13:15;;;;;;;7.03;2.10;;;;;;;16.90;73.69;101369.38;6154974;23;20088;-42
2022/09/24 08:15:41;;;;;;;11.25;2.10;;;;;;;17.23;73.06;101368.31;6134584;23;20104;-41
2022/09/24 08:18:09;;;;;;;5.25;1.85;;;;;;;16.92;73.88;101370.25;6158164;23;20063;-41
2022/09/24 08:20:36;;;;;;;8.25;2.10;;;;;;;17.08;73.66;101380.72;6151861;23;20135;-41
2022/09/24 08:23:08;;;;;;;10.80;2.00;;;;;;;17.04;73.50;101378.09;6162596;23;20084;-42
2022/09/24 08:25:34;;;;;;;8.80;1.83;;;;;;;17.16;73.39;101386.81;6160653;23;20016;-43
2022/09/24 08:28:01;;;;;;;8.77;1.85;;;;;;;17.11;73.11;101396.50;6162241;23;20009;-43
2022/09/24 08:30:28;;;;;;;9.15;1.80;;;;;;;16.98;73.25;101390.41;6161354;23;20044;-44
2022/09/24 08:32:55;;;;;;;6.95;1.80;;;;;;;17.20;73.38;101385.94;6158824;23;20866;-42
2022/09/24 08:35:20;;;;;;;6.88;1.70;;;;;;;17.37;73.10;101389.34;6161086;23;20009;-43
2022/09/24 08:37:47;;;;;;;6.10;1.70;;;;;;;17.24;73.26;101387.66;6152947;23;20051;-43
2022/09/24 08:40:20;;;;;;;8.55;1.80;;;;;;;17.22;72.90;101394.69;6161749;23;20059;-42
2022/09/24 08:42:58;;;;;;;6.50;1.73;;;;;;;17.38;72.43;101399.00;6145885;23;20414;-42
2022/09/24 08:48:14;;;;;;;;;;;;;;;17.44;73.11;101402.44;6162862;23;20415;-41
2022/09/24 08:50:49;;;;;;;7.72;1.70;;;;;;;17.66;72.22;101408.50;6155086;23;19955;-42
2022/09/24 08:53:28;;;;;;;7.18;1.52;;;;;;;17.67;71.72;101409.38;6162758;23;20009;-41
2022/09/24 08:55:59;;;;;;;8.25;1.60;;;;;;;17.87;71.48;101406.59;6152544;23;20508;-44
2022/09/24 08:58:37;;;;;;;7.80;1.98;;;;;;;17.75;71.40;101410.16;6161333;23;20009;-42
2022/09/24 09:01:11;;;;;;;8.77;1.80;;;;;;;17.72;71.17;101408.44;6159030;23;20055;-42
2022/09/24 09:03:40;;;;;;;6.15;1.70;;;;;;;17.64;71.45;101409.38;6161438;23;20017;-43
2022/09/24 09:06:33;;;;;;;6.82;1.60;;;;;;;17.73;70.28;101407.56;6161307;23;20071;-43
2022/09/24 09:09:13;;;;;;;7.93;1.90;;;;;;;18.01;70.29;101402.94;6160412;23;20009;-43
2022/09/24 09:11:44;;;;;;;10.13;1.85;;;;;;;17.90;69.89;101404.78;6161692;23;20052;-44
2022/09/24 09:14:36;;;;;;;8.43;1.80;;;;;;;17.73;69.77;101418.13;6158494;23;20009;-42
2022/09/24 09:17:11;;;;;;;6.40;1.90;;;;;;;18.08;69.17;101419.59;6161209;23;20013;-42
2022/09/24 09:19:40;;;;;;;7.53;1.85;;;;;;;17.95;69.02;101421.44;6138063;23;20107;-42
2022/09/24 09:22:16;;;;;;;7.45;1.95;;;;;;;17.86;69.00;101416.25;6164566;23;20028;-41
2022/09/24 09:24:48;;;;;;;10.50;2.08;;;;;;;17.83;69.92;101424.19;6151843;23;20050;-43
2022/09/24 09:27:15;;;;;;;9.15;1.58;;;;;;;17.67;69.74;101420.78;6160678;23;20021;-44
2022/09/24 09:29:47;;;;;;;8.48;1.80;;;;;;;17.78;68.69;101426.88;6182400;23;20532;-41
2022/09/24 09:32:45;;;;;;;7.07;1.67;;;;;;;18.01;67.96;101434.59;6158240;23;20344;-41
2022/09/24 09:35:20;;;;;;;9.55;1.48;;;;;;;17.86;67.37;101440.00;6127877;23;20828;-41
2022/09/24 09:38:09;;;;;;;9.52;1.73;;;;;;;17.50;68.47;101434.94;6151869;23;20063;-43
2022/09/24 09:40:47;;;;;;;9.60;2.05;;;;;;;17.61;67.28;101436.66;6148932;23;20005;-41
2022/09/24 09:43:13;;;;;;;6.85;1.45;;;;;;;17.40;66.74;101437.63;6158579;23;20023;-42
2022/09/24 09:45:58;;;;;;;5.57;1.23;;;;;;;17.53;66.87;101442.81;6144453;23;20009;-44
2022/09/24 09:48:25;;;;;;;;;;;;;;;17.41;66.64;101444.66;6162859;23;20017;-43
2022/09/24 09:50:58;;;;;;;7.13;1.50;;;;;;;17.51;65.67;101449.84;6153930;23;19919;-41
2022/09/24 09:53:30;;;;;;;8.43;1.70;;;;;;;17.45;66.65;101446.38;6164273;23;20001;-42
2022/09/24 09:55:59;;;;;;;6.18;1.65;;;;;;;17.51;66.08;101444.56;6159039;23;20016;-42
2022/09/24 09:58:31;;;;;;;6.35;1.80;;;;;;;17.62;65.66;101454.25;6163674;23;20001;-45
2022/09/24 10:01:02;;;;;;;9.98;1.75;;;;;;;17.58;65.41;101448.94;6159821;23;20013;-43
2022/09/24 10:03:39;;;;;;;6.53;1.50;;;;;;;17.89;65.40;101452.28;6163801;23;20968;-45
2022/09/24 10:06:06;;;;;;;6.72;1.58;;;;;;;17.70;65.29;101448.88;6160563;23;20166;-42
2022/09/24 10:08:31;;;;;;;8.45;1.50;;;;;;;17.95;66.17;101447.81;6158624;23;20020;-44
2022/09/24 10:11:02;;;;;;;5.50;1.65;;;;;;;17.98;65.09;101445.19;6163187;23;20028;-42
2022/09/24 10:13:30;;;;;;;6.78;1.55;;;;;;;18.10;64.72;101452.13;6160149;23;20466;-42
2022/09/24 10:16:17;;;;;;;6.93;1.52;;;;;;;17.97;65.20;101445.19;6164401;23;20491;-42
2022/09/24 10:18:48;;;;;;;6.97;1.55;;;;;;;18.19;64.89;101449.38;6158240;23;20483;-43
2022/09/24 10:21:35;;;;;;;5.53;1.50;;;;;;;18.26;65.14;101445.81;6162842;23;20115;-42
2022/09/24 10:24:03;;;;;;;6.13;1.40;;;;;;;18.51;64.85;101447.34;6163578;23;20321;-42
2022/09/24 10:26:37;;;;;;;8.30;1.40;;;;;;;18.28;63.92;101449.31;6153157;23;20009;-44
2022/09/24 10:31:48;;;;;;;6.30;1.50;;;;;;;18.05;64.92;101457.41;6157306;23;20012;-42
2022/09/24 10:34:27;;;;;;;9.55;1.50;;;;;;;18.21;62.74;101463.47;6161229;23;20384;-42
2022/09/24 10:37:02;;;;;;;9.15;1.40;;;;;;;18.33;62.55;101463.34;6155096;23;20020;-43
2022/09/24 10:39:29;;;;;;;6.35;1.40;;;;;;;18.09;60.72;101460.91;6161606;23;20009;-42
2022/09/24 10:41:56;;;;;;;6.10;1.40;;;;;;;18.15;60.11;101471.41;6166568;23;20008;-41
2022/09/24 10:44:25;;;;;;;5.15;1.20;;;;;;;18.13;59.81;101462.63;6157498;23;20032;-41
2022/09/24 10:47:06;;;;;;;6.80;1.30;;;;;;;18.19;60.45;101459.94;6161172;23;20020;-43
2022/09/24 10:50:10;;;;;;;7.88;1.58;;;;;;;18.33;59.96;101468.63;6157370;23;20087;-40
2022/09/24 10:52:54;;;;;;;7.25;1.30;;;;;;;18.42;59.69;101471.16;6159975;23;20079;-41
2022/09/24 10:55:39;;;;;;;9.43;1.65;;;;;;;18.43;60.69;101467.63;6158649;23;20433;-40
2022/09/24 10:58:24;;;;;;;5.78;1.20;;;;;;;18.42;59.53;101459.75;6162503;23;20023;-41
2022/09/24 11:01:07;;;;;;;4.90;1.20;;;;;;;18.44;59.67;101464.13;6153610;23;20135;-41
2022/09/24 11:03:54;;;;;;;5.95;1.40;;;;;;;18.21;59.29;101472.25;6145489;23;20088;-41
2022/09/24 11:06:41;;;;;;;5.88;1.52;;;;;;;18.50;59.04;101460.53;6161114;23;20009;-40
2022/09/24 11:09:07;;;;;;;6.25;1.20;;;;;;;18.31;59.15;101466.88;6161390;23;20017;-40
2022/09/24 11:11:42;;;;;;;3.70;1.20;;;;;;;18.58;58.60;101466.66;6159871;23;20009;-41
2022/09/24 11:14:32;;;;;;;6.28;1.60;;;;;;;18.19;58.63;101474.00;6159449;23;20009;-41
2022/09/24 11:17:09;;;;;;;5.55;1.30;;;;;;;18.48;59.12;101473.75;6161499;23;20024;-42
2022/09/24 11:20:18;;;;;;;6.60;1.50;;;;;;;18.17;59.70;101477.56;6156973;23;20049;-41
2022/09/24 11:23:10;;;;;;;4.55;1.30;;;;;;;18.59;58.60;101468.41;6159862;23;20019;-42
2022/09/24 11:26:00;;;;;;;8.60;1.48;;;;;;;18.67;58.26;101470.97;6156896;23;20013;-42
2022/09/24 11:28:53;;;;;;;7.45;1.50;;;;;;;18.85;57.59;101466.34;6160903;23;20017;-43
2022/09/24 11:31:38;;;;;;;6.50;1.48;;;;;;;18.95;57.19;101467.13;6154249;23;20099;-41
2022/09/24 11:34:45;;;;;;;5.97;1.30;;;;;;;18.74;58.59;101464.72;6163558;23;20021;-40
2022/09/24 11:37:23;;;;;;;5.95;1.40;;;;;;;18.97;57.87;101475.91;6158145;23;20867;-42
2022/09/24 11:39:55;;;;;;;6.35;1.50;;;;;;;18.95;58.76;101477.72;6164405;23;20072;-40
2022/09/24 11:42:27;;;;;;;6.25;1.58;;;;;;;19.23;57.64;101475.59;6166721;23;20009;-40
2022/09/24 11:45:27;;;;;;;8.40;1.60;;;;;;;19.12;56.87;101477.50;6138456;23;20021;-40